sensor_id;sensor_type;location;lat;lon;timestamp;P1;durP1;ratioP1;P2;durP2;ratioP2
3875;SDS011;1953;51.222;6.624;2023-02-01T00:03:28;28.17;;;13.90;;
3875;SDS011;1953;51.222;6.624;2023-02-01T00:09:34;28.33;;;14.30;;
3875;SDS011;1953;51.222;6.624;2023-02-01T00:14:16;29.60;;;13.77;;
3875;SDS011;1953;51.222;6.624;2023-02-01T00:19:01;30.30;;;14.90;;
3875;SDS011;1953;51.222;6.624;2023-02-01T00:23:44;41.43;;;13.60;;
3875;SDS011;1953;51.222;6.624;2023-02-01T00:28:29;27.40;;;13.80;;
3875;SDS011;1953;51.222;6.624;2023-02-01T00:33:11;17.30;;;10.47;;
3875;SDS011;1953;51.222;6.624;2023-02-01T00:37:53;34.63;;;11.67;;
3875;SDS011;1953;51.222;6.624;2023-02-01T00:42:36;25.73;;;11.30;;
3875;SDS011;1953;51.222;6.624;2023-02-01T00:47:20;30.40;;;12.03;;
3875;SDS011;1953;51.222;6.624;2023-02-01T00:52:02;23.10;;;10.40;;
3875;SDS011;1953;51.222;6.624;2023-02-01T00:56:45;23.63;;;9.73;;
3875;SDS011;1953;51.222;6.624;2023-02-01T01:01:27;20.17;;;9.30;;
3875;SDS011;1953;51.222;6.624;2023-02-01T01:06:12;19.03;;;9.60;;
3875;SDS011;1953;51.222;6.624;2023-02-01T01:10:57;20.73;;;7.77;;
3875;SDS011;1953;51.222;6.624;2023-02-01T01:15:39;17.47;;;6.13;;
3875;SDS011;1953;51.222;6.624;2023-02-01T01:20:23;15.23;;;5.80;;
3875;SDS011;1953;51.222;6.624;2023-02-01T01:25:07;19.23;;;7.00;;
3875;SDS011;1953;51.222;6.624;2023-02-01T01:29:50;16.03;;;6.53;;
3875;SDS011;1953;51.222;6.624;2023-02-01T01:34:32;19.67;;;5.90;;
3875;SDS011;1953;51.222;6.624;2023-02-01T01:39:15;19.77;;;5.70;;
3875;SDS011;1953;51.222;6.624;2023-02-01T01:43:59;19.17;;;5.83;;
3875;SDS011;1953;51.222;6.624;2023-02-01T01:48:42;21.70;;;6.40;;
3875;SDS011;1953;51.222;6.624;2023-02-01T01:53:26;21.90;;;6.60;;
3875;SDS011;1953;51.222;6.624;2023-02-01T01:58:13;14.30;;;5.43;;
3875;SDS011;1953;51.222;6.624;2023-02-01T02:03:00;12.80;;;4.57;;
3875;SDS011;1953;51.222;6.624;2023-02-01T02:07:50;12.93;;;4.73;;
3875;SDS011;1953;51.222;6.624;2023-02-01T02:12:35;16.03;;;5.13;;
3875;SDS011;1953;51.222;6.624;2023-02-01T02:17:23;17.67;;;4.93;;
3875;SDS011;1953;51.222;6.624;2023-02-01T02:22:21;11.97;;;5.17;;
3875;SDS011;1953;51.222;6.624;2023-02-01T02:27:22;17.10;;;4.10;;
3875;SDS011;1953;51.222;6.624;2023-02-01T02:32:22;17.00;;;4.93;;
3875;SDS011;1953;51.222;6.624;2023-02-01T02:37:30;16.80;;;5.67;;
3875;SDS011;1953;51.222;6.624;2023-02-01T02:42:17;18.00;;;4.40;;
3875;SDS011;1953;51.222;6.624;2023-02-01T02:47:25;19.50;;;5.07;;
3875;SDS011;1953;51.222;6.624;2023-02-01T02:52:15;9.53;;;3.87;;
3875;SDS011;1953;51.222;6.624;2023-02-01T02:57:20;17.20;;;6.00;;
3875;SDS011;1953;51.222;6.624;2023-02-01T03:02:23;14.83;;;5.57;;
3875;SDS011;1953;51.222;6.624;2023-02-01T03:12:45;12.90;;;4.03;;
3875;SDS011;1953;51.222;6.624;2023-02-01T03:17:39;14.97;;;5.07;;
3875;SDS011;1953;51.222;6.624;2023-02-01T03:22:24;21.70;;;6.60;;
3875;SDS011;1953;51.222;6.624;2023-02-01T03:27:13;21.37;;;4.50;;
3875;SDS011;1953;51.222;6.624;2023-02-01T03:32:00;19.57;;;5.60;;
3875;SDS011;1953;51.222;6.624;2023-02-01T03:36:43;14.83;;;5.13;;
3875;SDS011;1953;51.222;6.624;2023-02-01T03:41:34;25.50;;;5.20;;
3875;SDS011;1953;51.222;6.624;2023-02-01T03:46:24;19.67;;;5.60;;
3875;SDS011;1953;51.222;6.624;2023-02-01T03:51:14;18.20;;;5.60;;
3875;SDS011;1953;51.222;6.624;2023-02-01T03:55:58;20.73;;;4.80;;
3875;SDS011;1953;51.222;6.624;2023-02-01T04:00:43;25.97;;;6.47;;
3875;SDS011;1953;51.222;6.624;2023-02-01T04:05:26;20.17;;;4.57;;
3875;SDS011;1953;51.222;6.624;2023-02-01T04:10:10;15.70;;;4.53;;
3875;SDS011;1953;51.222;6.624;2023-02-01T04:14:53;10.57;;;3.80;;
3875;SDS011;1953;51.222;6.624;2023-02-01T04:19:35;16.50;;;4.20;;
3875;SDS011;1953;51.222;6.624;2023-02-01T04:24:18;13.27;;;4.30;;
3875;SDS011;1953;51.222;6.624;2023-02-01T04:29:01;9.33;;;4.10;;
3875;SDS011;1953;51.222;6.624;2023-02-01T04:33:44;15.30;;;3.40;;
3875;SDS011;1953;51.222;6.624;2023-02-01T04:38:26;13.53;;;4.40;;
3875;SDS011;1953;51.222;6.624;2023-02-01T04:43:10;16.43;;;4.90;;
3875;SDS011;1953;51.222;6.624;2023-02-01T04:47:53;10.00;;;3.63;;
3875;SDS011;1953;51.222;6.624;2023-02-01T04:52:36;20.27;;;5.73;;
3875;SDS011;1953;51.222;6.624;2023-02-01T04:57:18;19.53;;;4.20;;
3875;SDS011;1953;51.222;6.624;2023-02-01T05:02:01;14.97;;;4.40;;
3875;SDS011;1953;51.222;6.624;2023-02-01T05:06:44;20.73;;;4.63;;
3875;SDS011;1953;51.222;6.624;2023-02-01T05:11:27;18.73;;;5.57;;
3875;SDS011;1953;51.222;6.624;2023-02-01T05:16:27;12.07;;;3.80;;
3875;SDS011;1953;51.222;6.624;2023-02-01T05:21:09;20.10;;;4.90;;
3875;SDS011;1953;51.222;6.624;2023-02-01T05:25:57;22.47;;;4.87;;
3875;SDS011;1953;51.222;6.624;2023-02-01T05:30:40;20.27;;;4.73;;
3875;SDS011;1953;51.222;6.624;2023-02-01T05:35:22;15.73;;;4.60;;
3875;SDS011;1953;51.222;6.624;2023-02-01T05:40:05;28.47;;;4.20;;
3875;SDS011;1953;51.222;6.624;2023-02-01T05:44:50;16.27;;;3.27;;
3875;SDS011;1953;51.222;6.624;2023-02-01T05:49:32;19.07;;;4.60;;
3875;SDS011;1953;51.222;6.624;2023-02-01T05:54:15;25.57;;;5.40;;
3875;SDS011;1953;51.222;6.624;2023-02-01T05:58:57;15.47;;;3.80;;
3875;SDS011;1953;51.222;6.624;2023-02-01T06:03:41;19.63;;;5.23;;
3875;SDS011;1953;51.222;6.624;2023-02-01T06:08:23;19.30;;;4.10;;
3875;SDS011;1953;51.222;6.624;2023-02-01T06:13:06;12.57;;;3.60;;
3875;SDS011;1953;51.222;6.624;2023-02-01T06:17:49;12.37;;;4.60;;
3875;SDS011;1953;51.222;6.624;2023-02-01T06:22:32;20.63;;;4.70;;
3875;SDS011;1953;51.222;6.624;2023-02-01T06:27:16;12.20;;;3.90;;
3875;SDS011;1953;51.222;6.624;2023-02-01T06:31:59;15.27;;;4.23;;
3875;SDS011;1953;51.222;6.624;2023-02-01T06:36:41;18.33;;;4.60;;
3875;SDS011;1953;51.222;6.624;2023-02-01T06:41:25;10.90;;;2.90;;
3875;SDS011;1953;51.222;6.624;2023-02-01T06:46:08;28.97;;;5.43;;
3875;SDS011;1953;51.222;6.624;2023-02-01T06:50:53;23.23;;;4.90;;
3875;SDS011;1953;51.222;6.624;2023-02-01T06:55:36;16.63;;;4.13;;
3875;SDS011;1953;51.222;6.624;2023-02-01T07:00:20;20.10;;;4.07;;
3875;SDS011;1953;51.222;6.624;2023-02-01T07:05:03;12.13;;;4.30;;
3875;SDS011;1953;51.222;6.624;2023-02-01T07:09:46;20.03;;;5.37;;
3875;SDS011;1953;51.222;6.624;2023-02-01T07:14:28;23.03;;;5.27;;
3875;SDS011;1953;51.222;6.624;2023-02-01T07:19:12;20.73;;;5.00;;
3875;SDS011;1953;51.222;6.624;2023-02-01T07:23:54;11.10;;;3.83;;
3875;SDS011;1953;51.222;6.624;2023-02-01T07:28:37;17.67;;;4.77;;
3875;SDS011;1953;51.222;6.624;2023-02-01T07:33:20;16.47;;;4.50;;
3875;SDS011;1953;51.222;6.624;2023-02-01T07:38:05;40.27;;;6.03;;
3875;SDS011;1953;51.222;6.624;2023-02-01T07:42:48;10.80;;;4.20;;
3875;SDS011;1953;51.222;6.624;2023-02-01T07:47:30;17.13;;;4.57;;
3875;SDS011;1953;51.222;6.624;2023-02-01T07:52:13;20.23;;;5.37;;
3875;SDS011;1953;51.222;6.624;2023-02-01T07:56:58;16.13;;;4.97;;
3875;SDS011;1953;51.222;6.624;2023-02-01T08:01:41;15.63;;;4.60;;
3875;SDS011;1953;51.222;6.624;2023-02-01T08:06:23;14.17;;;4.90;;
3875;SDS011;1953;51.222;6.624;2023-02-01T08:11:06;13.10;;;3.13;;
3875;SDS011;1953;51.222;6.624;2023-02-01T08:15:50;22.33;;;5.30;;
3875;SDS011;1953;51.222;6.624;2023-02-01T08:20:33;17.17;;;5.30;;
3875;SDS011;1953;51.222;6.624;2023-02-01T08:25:16;12.97;;;4.23;;
3875;SDS011;1953;51.222;6.624;2023-02-01T08:29:59;13.13;;;5.10;;
3875;SDS011;1953;51.222;6.624;2023-02-01T08:34:43;20.33;;;5.90;;
3875;SDS011;1953;51.222;6.624;2023-02-01T08:39:26;21.13;;;5.90;;
3875;SDS011;1953;51.222;6.624;2023-02-01T08:44:08;14.07;;;5.20;;
3875;SDS011;1953;51.222;6.624;2023-02-01T08:48:51;17.87;;;5.93;;
3875;SDS011;1953;51.222;6.624;2023-02-01T08:53:34;27.90;;;6.67;;
3875;SDS011;1953;51.222;6.624;2023-02-01T08:58:17;17.07;;;4.70;;
3875;SDS011;1953;51.222;6.624;2023-02-01T09:03:00;14.20;;;5.00;;
3875;SDS011;1953;51.222;6.624;2023-02-01T09:07:42;23.87;;;5.63;;
3875;SDS011;1953;51.222;6.624;2023-02-01T09:12:26;15.17;;;6.60;;
3875;SDS011;1953;51.222;6.624;2023-02-01T09:17:09;31.57;;;6.87;;
3875;SDS011;1953;51.222;6.624;2023-02-01T09:21:54;20.73;;;6.30;;
3875;SDS011;1953;51.222;6.624;2023-02-01T09:26:36;24.83;;;6.23;;
3875;SDS011;1953;51.222;6.624;2023-02-01T09:31:20;16.43;;;4.73;;
3875;SDS011;1953;51.222;6.624;2023-02-01T09:36:04;18.33;;;6.53;;
3875;SDS011;1953;51.222;6.624;2023-02-01T09:40:47;20.70;;;6.80;;
3875;SDS011;1953;51.222;6.624;2023-02-01T09:45:31;24.53;;;4.90;;
3875;SDS011;1953;51.222;6.624;2023-02-01T09:50:22;25.97;;;7.57;;
3875;SDS011;1953;51.222;6.624;2023-02-01T09:55:13;17.80;;;6.40;;
3875;SDS011;1953;51.222;6.624;2023-02-01T10:00:00;18.33;;;5.83;;
3875;SDS011;1953;51.222;6.624;2023-02-01T10:04:46;13.70;;;5.50;;
3875;SDS011;1953;51.222;6.624;2023-02-01T10:09:35;13.93;;;4.40;;
3875;SDS011;1953;51.222;6.624;2023-02-01T10:14:33;19.67;;;5.10;;
3875;SDS011;1953;51.222;6.624;2023-02-01T10:19:29;16.43;;;5.70;;
3875;SDS011;1953;51.222;6.624;2023-02-01T10:24:23;17.13;;;5.20;;
3875;SDS011;1953;51.222;6.624;2023-02-01T10:29:24;16.60;;;5.27;;
3875;SDS011;1953;51.222;6.624;2023-02-01T10:34:15;17.63;;;4.83;;
3875;SDS011;1953;51.222;6.624;2023-02-01T10:39:02;16.23;;;5.20;;
3875;SDS011;1953;51.222;6.624;2023-02-01T10:43:49;13.67;;;4.20;;
3875;SDS011;1953;51.222;6.624;2023-02-01T10:48:36;23.77;;;5.50;;
3875;SDS011;1953;51.222;6.624;2023-02-01T10:53:22;17.03;;;5.27;;
3875;SDS011;1953;51.222;6.624;2023-02-01T10:58:14;14.30;;;5.10;;
3875;SDS011;1953;51.222;6.624;2023-02-01T11:02:57;15.97;;;5.57;;
3875;SDS011;1953;51.222;6.624;2023-02-01T11:07:45;11.27;;;4.97;;
3875;SDS011;1953;51.222;6.624;2023-02-01T11:12:30;15.03;;;5.73;;
3875;SDS011;1953;51.222;6.624;2023-02-01T11:17:24;13.40;;;5.00;;
3875;SDS011;1953;51.222;6.624;2023-02-01T11:22:09;21.60;;;6.10;;
3875;SDS011;1953;51.222;6.624;2023-02-01T11:26:56;14.23;;;5.90;;
3875;SDS011;1953;51.222;6.624;2023-02-01T11:31:39;20.23;;;5.40;;
3875;SDS011;1953;51.222;6.624;2023-02-01T11:36:24;24.93;;;5.63;;
3875;SDS011;1953;51.222;6.624;2023-02-01T11:41:13;18.27;;;5.10;;
3875;SDS011;1953;51.222;6.624;2023-02-01T11:46:03;14.33;;;4.10;;
3875;SDS011;1953;51.222;6.624;2023-02-01T11:51:14;20.27;;;5.00;;
3875;SDS011;1953;51.222;6.624;2023-02-01T11:56:08;15.20;;;5.37;;
3875;SDS011;1953;51.222;6.624;2023-02-01T12:01:10;22.73;;;6.60;;
3875;SDS011;1953;51.222;6.624;2023-02-01T12:10:37;20.70;;;7.60;;
3875;SDS011;1953;51.222;6.624;2023-02-01T12:15:29;14.73;;;6.13;;
3875;SDS011;1953;51.222;6.624;2023-02-01T12:20:38;15.77;;;5.83;;
3875;SDS011;1953;51.222;6.624;2023-02-01T12:25:46;14.60;;;5.50;;
3875;SDS011;1953;51.222;6.624;2023-02-01T12:30:50;13.97;;;6.20;;
3875;SDS011;1953;51.222;6.624;2023-02-01T12:35:49;14.63;;;6.40;;
3875;SDS011;1953;51.222;6.624;2023-02-01T12:40:43;17.47;;;5.90;;
3875;SDS011;1953;51.222;6.624;2023-02-01T12:45:38;13.67;;;5.30;;
3875;SDS011;1953;51.222;6.624;2023-02-01T12:50:24;13.07;;;5.37;;
3875;SDS011;1953;51.222;6.624;2023-02-01T12:55:15;18.23;;;5.50;;
3875;SDS011;1953;51.222;6.624;2023-02-01T13:00:13;13.30;;;5.20;;
3875;SDS011;1953;51.222;6.624;2023-02-01T13:05:04;9.43;;;3.73;;
3875;SDS011;1953;51.222;6.624;2023-02-01T13:09:55;12.93;;;4.67;;
3875;SDS011;1953;51.222;6.624;2023-02-01T13:14:44;11.40;;;4.30;;
3875;SDS011;1953;51.222;6.624;2023-02-01T13:19:35;14.17;;;4.57;;
3875;SDS011;1953;51.222;6.624;2023-02-01T13:24:35;15.23;;;4.37;;
3875;SDS011;1953;51.222;6.624;2023-02-01T13:29:20;9.63;;;3.50;;
3875;SDS011;1953;51.222;6.624;2023-02-01T13:34:25;18.53;;;4.60;;
3875;SDS011;1953;51.222;6.624;2023-02-01T13:39:24;7.30;;;2.63;;
3875;SDS011;1953;51.222;6.624;2023-02-01T13:44:24;10.80;;;4.23;;
3875;SDS011;1953;51.222;6.624;2023-02-01T13:49:15;12.50;;;4.17;;
3875;SDS011;1953;51.222;6.624;2023-02-01T13:54:01;12.13;;;4.07;;
3875;SDS011;1953;51.222;6.624;2023-02-01T13:58:46;8.80;;;2.97;;
3875;SDS011;1953;51.222;6.624;2023-02-01T14:03:42;11.90;;;3.20;;
3875;SDS011;1953;51.222;6.624;2023-02-01T14:08:37;13.37;;;3.30;;
3875;SDS011;1953;51.222;6.624;2023-02-01T14:13:23;20.23;;;3.67;;
3875;SDS011;1953;51.222;6.624;2023-02-01T14:23:30;10.47;;;2.93;;
3875;SDS011;1953;51.222;6.624;2023-02-01T14:28:23;15.23;;;3.10;;
3875;SDS011;1953;51.222;6.624;2023-02-01T14:33:17;13.57;;;3.43;;
3875;SDS011;1953;51.222;6.624;2023-02-01T14:38:02;11.77;;;3.07;;
3875;SDS011;1953;51.222;6.624;2023-02-01T14:42:46;16.30;;;2.77;;
3875;SDS011;1953;51.222;6.624;2023-02-01T14:47:33;8.90;;;3.13;;
3875;SDS011;1953;51.222;6.624;2023-02-01T14:52:16;16.90;;;3.80;;
3875;SDS011;1953;51.222;6.624;2023-02-01T14:57:02;11.53;;;3.43;;
3875;SDS011;1953;51.222;6.624;2023-02-01T15:01:49;14.60;;;4.10;;
3875;SDS011;1953;51.222;6.624;2023-02-01T15:06:39;15.10;;;3.73;;
3875;SDS011;1953;51.222;6.624;2023-02-01T15:11:22;17.47;;;3.80;;
3875;SDS011;1953;51.222;6.624;2023-02-01T15:16:08;9.67;;;3.93;;
3875;SDS011;1953;51.222;6.624;2023-02-01T15:20:57;9.80;;;3.43;;
3875;SDS011;1953;51.222;6.624;2023-02-01T15:25:40;12.33;;;4.13;;
3875;SDS011;1953;51.222;6.624;2023-02-01T15:30:23;10.10;;;3.17;;
3875;SDS011;1953;51.222;6.624;2023-02-01T15:40:25;5.30;;;3.00;;
3875;SDS011;1953;51.222;6.624;2023-02-01T15:45:15;16.87;;;4.33;;
3875;SDS011;1953;51.222;6.624;2023-02-01T15:49:59;10.47;;;3.33;;
3875;SDS011;1953;51.222;6.624;2023-02-01T15:54:43;14.23;;;4.30;;
3875;SDS011;1953;51.222;6.624;2023-02-01T15:59:35;11.60;;;4.27;;
3875;SDS011;1953;51.222;6.624;2023-02-01T16:04:23;11.90;;;3.63;;
3875;SDS011;1953;51.222;6.624;2023-02-01T16:09:09;8.77;;;3.50;;
3875;SDS011;1953;51.222;6.624;2023-02-01T16:13:53;11.53;;;4.20;;
3875;SDS011;1953;51.222;6.624;2023-02-01T16:18:37;8.17;;;3.40;;
3875;SDS011;1953;51.222;6.624;2023-02-01T16:23:20;19.23;;;3.90;;
3875;SDS011;1953;51.222;6.624;2023-02-01T16:28:02;13.90;;;4.30;;
3875;SDS011;1953;51.222;6.624;2023-02-01T16:32:45;31.63;;;4.00;;
3875;SDS011;1953;51.222;6.624;2023-02-01T16:37:29;18.00;;;4.00;;
3875;SDS011;1953;51.222;6.624;2023-02-01T16:42:14;10.70;;;3.07;;
3875;SDS011;1953;51.222;6.624;2023-02-01T16:46:57;11.20;;;3.57;;
3875;SDS011;1953;51.222;6.624;2023-02-01T16:51:40;28.60;;;4.67;;
3875;SDS011;1953;51.222;6.624;2023-02-01T16:56:27;18.43;;;4.23;;
3875;SDS011;1953;51.222;6.624;2023-02-01T17:01:12;14.63;;;4.87;;
3875;SDS011;1953;51.222;6.624;2023-02-01T17:05:56;21.50;;;4.87;;
3875;SDS011;1953;51.222;6.624;2023-02-01T17:10:39;8.27;;;3.30;;
3875;SDS011;1953;51.222;6.624;2023-02-01T17:15:23;15.17;;;4.73;;
3875;SDS011;1953;51.222;6.624;2023-02-01T17:20:06;16.83;;;4.43;;
3875;SDS011;1953;51.222;6.624;2023-02-01T17:24:58;25.13;;;4.70;;
3875;SDS011;1953;51.222;6.624;2023-02-01T17:29:41;24.97;;;5.27;;
3875;SDS011;1953;51.222;6.624;2023-02-01T17:34:24;27.23;;;4.47;;
3875;SDS011;1953;51.222;6.624;2023-02-01T17:39:07;10.77;;;4.30;;
3875;SDS011;1953;51.222;6.624;2023-02-01T17:43:50;22.70;;;5.23;;
3875;SDS011;1953;51.222;6.624;2023-02-01T17:48:33;13.70;;;3.03;;
3875;SDS011;1953;51.222;6.624;2023-02-01T17:53:17;12.20;;;4.07;;
3875;SDS011;1953;51.222;6.624;2023-02-01T17:58:01;8.83;;;3.97;;
3875;SDS011;1953;51.222;6.624;2023-02-01T18:02:44;12.90;;;4.40;;
3875;SDS011;1953;51.222;6.624;2023-02-01T18:07:27;10.43;;;4.03;;
3875;SDS011;1953;51.222;6.624;2023-02-01T18:12:13;18.60;;;4.30;;
3875;SDS011;1953;51.222;6.624;2023-02-01T18:16:58;8.40;;;2.60;;
3875;SDS011;1953;51.222;6.624;2023-02-01T18:21:41;14.00;;;4.60;;
3875;SDS011;1953;51.222;6.624;2023-02-01T18:26:24;16.53;;;4.73;;
3875;SDS011;1953;51.222;6.624;2023-02-01T18:31:10;15.70;;;4.57;;
3875;SDS011;1953;51.222;6.624;2023-02-01T18:36:01;11.87;;;4.53;;
3875;SDS011;1953;51.222;6.624;2023-02-01T18:40:45;14.87;;;4.10;;
3875;SDS011;1953;51.222;6.624;2023-02-01T18:45:32;12.87;;;4.07;;
3875;SDS011;1953;51.222;6.624;2023-02-01T18:50:18;17.80;;;4.40;;
3875;SDS011;1953;51.222;6.624;2023-02-01T18:55:01;7.97;;;3.53;;
3875;SDS011;1953;51.222;6.624;2023-02-01T18:59:43;19.30;;;4.63;;
3875;SDS011;1953;51.222;6.624;2023-02-01T19:04:26;14.50;;;4.50;;
3875;SDS011;1953;51.222;6.624;2023-02-01T19:09:11;16.33;;;4.63;;
3875;SDS011;1953;51.222;6.624;2023-02-01T19:13:53;40.73;;;5.57;;
3875;SDS011;1953;51.222;6.624;2023-02-01T19:18:36;22.10;;;4.70;;
3875;SDS011;1953;51.222;6.624;2023-02-01T19:23:18;18.33;;;4.93;;
3875;SDS011;1953;51.222;6.624;2023-02-01T19:28:03;11.23;;;4.20;;
3875;SDS011;1953;51.222;6.624;2023-02-01T19:32:46;13.63;;;4.53;;
3875;SDS011;1953;51.222;6.624;2023-02-01T19:37:28;18.27;;;5.10;;
3875;SDS011;1953;51.222;6.624;2023-02-01T19:42:11;23.53;;;6.10;;
3875;SDS011;1953;51.222;6.624;2023-02-01T19:46:55;15.67;;;4.97;;
3875;SDS011;1953;51.222;6.624;2023-02-01T19:51:38;25.47;;;5.80;;
3875;SDS011;1953;51.222;6.624;2023-02-01T19:56:22;14.07;;;5.43;;
3875;SDS011;1953;51.222;6.624;2023-02-01T20:01:04;9.57;;;4.70;;
3875;SDS011;1953;51.222;6.624;2023-02-01T20:05:51;15.73;;;5.83;;
3875;SDS011;1953;51.222;6.624;2023-02-01T20:10:34;12.97;;;4.90;;
3875;SDS011;1953;51.222;6.624;2023-02-01T20:15:16;17.93;;;4.93;;
3875;SDS011;1953;51.222;6.624;2023-02-01T20:19:58;17.73;;;5.67;;
3875;SDS011;1953;51.222;6.624;2023-02-01T20:24:42;20.57;;;5.87;;
3875;SDS011;1953;51.222;6.624;2023-02-01T20:29:25;22.50;;;6.10;;
3875;SDS011;1953;51.222;6.624;2023-02-01T20:34:08;22.03;;;5.30;;
3875;SDS011;1953;51.222;6.624;2023-02-01T20:38:51;19.60;;;4.57;;
3875;SDS011;1953;51.222;6.624;2023-02-01T20:43:35;15.13;;;4.60;;
3875;SDS011;1953;51.222;6.624;2023-02-01T20:48:17;15.83;;;4.83;;
3875;SDS011;1953;51.222;6.624;2023-02-01T20:53:00;21.23;;;4.90;;
3875;SDS011;1953;51.222;6.624;2023-02-01T20:57:42;24.00;;;5.47;;
3875;SDS011;1953;51.222;6.624;2023-02-01T21:02:26;19.53;;;4.67;;
3875;SDS011;1953;51.222;6.624;2023-02-01T21:07:08;17.00;;;4.83;;
3875;SDS011;1953;51.222;6.624;2023-02-01T21:11:51;16.80;;;5.20;;
3875;SDS011;1953;51.222;6.624;2023-02-01T21:16:34;13.17;;;5.00;;
3875;SDS011;1953;51.222;6.624;2023-02-01T21:21:17;23.67;;;5.00;;
3875;SDS011;1953;51.222;6.624;2023-02-01T21:26:00;21.73;;;5.13;;
3875;SDS011;1953;51.222;6.624;2023-02-01T21:30:43;13.57;;;5.30;;
3875;SDS011;1953;51.222;6.624;2023-02-01T21:35:26;11.53;;;5.83;;
3875;SDS011;1953;51.222;6.624;2023-02-01T21:40:10;19.53;;;5.40;;
3875;SDS011;1953;51.222;6.624;2023-02-01T21:44:54;15.70;;;4.60;;
3875;SDS011;1953;51.222;6.624;2023-02-01T21:49:37;13.70;;;3.87;;
3875;SDS011;1953;51.222;6.624;2023-02-01T21:54:20;26.17;;;6.17;;
3875;SDS011;1953;51.222;6.624;2023-02-01T21:59:04;25.40;;;5.57;;
3875;SDS011;1953;51.222;6.624;2023-02-01T22:03:49;18.73;;;5.00;;
3875;SDS011;1953;51.222;6.624;2023-02-01T22:08:33;13.97;;;4.10;;
3875;SDS011;1953;51.222;6.624;2023-02-01T22:13:15;22.60;;;4.73;;
3875;SDS011;1953;51.222;6.624;2023-02-01T22:17:59;10.13;;;3.50;;
3875;SDS011;1953;51.222;6.624;2023-02-01T22:22:42;14.97;;;3.93;;
3875;SDS011;1953;51.222;6.624;2023-02-01T22:27:24;12.07;;;4.50;;
3875;SDS011;1953;51.222;6.624;2023-02-01T22:32:07;24.40;;;6.30;;
3875;SDS011;1953;51.222;6.624;2023-02-01T22:36:50;15.47;;;5.00;;
3875;SDS011;1953;51.222;6.624;2023-02-01T22:41:33;16.93;;;5.60;;
3875;SDS011;1953;51.222;6.624;2023-02-01T22:46:16;20.93;;;5.63;;
3875;SDS011;1953;51.222;6.624;2023-02-01T22:51:01;18.10;;;5.03;;
3875;SDS011;1953;51.222;6.624;2023-02-01T22:55:46;13.40;;;4.00;;
3875;SDS011;1953;51.222;6.624;2023-02-01T23:00:28;21.33;;;6.20;;
3875;SDS011;1953;51.222;6.624;2023-02-01T23:05:11;18.73;;;5.60;;
3875;SDS011;1953;51.222;6.624;2023-02-01T23:09:53;20.23;;;6.67;;
3875;SDS011;1953;51.222;6.624;2023-02-01T23:14:37;19.37;;;6.30;;
3875;SDS011;1953;51.222;6.624;2023-02-01T23:19:39;23.67;;;6.07;;
3875;SDS011;1953;51.222;6.624;2023-02-01T23:24:22;22.80;;;6.17;;
3875;SDS011;1953;51.222;6.624;2023-02-01T23:29:04;20.33;;;6.17;;
3875;SDS011;1953;51.222;6.624;2023-02-01T23:33:48;23.67;;;5.93;;
3875;SDS011;1953;51.222;6.624;2023-02-01T23:38:34;11.47;;;4.53;;
3875;SDS011;1953;51.222;6.624;2023-02-01T23:43:17;16.63;;;5.17;;
3875;SDS011;1953;51.222;6.624;2023-02-01T23:48:17;18.83;;;5.97;;
3875;SDS011;1953;51.222;6.624;2023-02-01T23:53:01;33.80;;;6.07;;
3875;SDS011;1953;51.222;6.624;2023-02-01T23:57:43;20.60;;;6.07;;
